createdAt,value
2023-02-28T00:01:09.357Z,51.30
2023-02-28T00:03:36.452Z,51.80
2023-02-28T00:06:08.037Z,51.10
2023-02-28T00:08:35.004Z,51.50
2023-02-28T00:11:03.940Z,51.30
2023-02-28T00:13:31.013Z,51.90
2023-02-28T00:16:06.334Z,51.50
2023-02-28T00:18:33.654Z,51.90
2023-02-28T00:21:00.653Z,51.80
2023-02-28T00:23:28.487Z,51.70
2023-02-28T00:25:55.429Z,51.80
2023-02-28T00:28:23.160Z,51.00
2023-02-28T00:30:50.261Z,51.20
2023-02-28T00:33:17.392Z,52.70
2023-02-28T00:35:47.334Z,52.30
2023-02-28T00:38:15.469Z,51.80
2023-02-28T00:40:42.743Z,50.20
2023-02-28T00:43:11.822Z,52.70
2023-02-28T00:45:38.759Z,52.70
2023-02-28T00:48:05.993Z,52.70
2023-02-28T00:50:32.993Z,52.10
2023-02-28T00:52:59.928Z,52.30
2023-02-28T00:55:27.510Z,52.40
2023-02-28T00:57:54.443Z,52.00
2023-02-28T01:00:21.538Z,52.50
2023-02-28T01:02:50.890Z,52.00
2023-02-28T01:05:17.933Z,52.40
2023-02-28T01:07:45.943Z,52.00
2023-02-28T01:10:13.112Z,52.20
2023-02-28T01:12:41.461Z,51.10
2023-02-28T01:15:12.029Z,51.20
2023-02-28T01:17:39.004Z,52.40
2023-02-28T01:20:06.502Z,53.10
2023-02-28T01:22:33.416Z,52.80
2023-02-28T01:25:01.617Z,52.70
2023-02-28T01:27:29.472Z,52.90
2023-02-28T01:29:56.511Z,52.80
2023-02-28T01:32:23.674Z,52.70
2023-02-28T01:34:50.731Z,52.80
2023-02-28T01:37:17.687Z,52.70
2023-02-28T01:39:44.722Z,53.00
2023-02-28T01:42:11.778Z,52.80
2023-02-28T01:44:59.937Z,52.90
2023-02-28T01:47:32.613Z,52.90
2023-02-28T01:50:01.810Z,52.60
2023-02-28T01:52:33.093Z,53.10
2023-02-28T01:55:03.272Z,53.80
2023-02-28T01:57:38.756Z,53.50
2023-02-28T02:00:15.661Z,53.30
2023-02-28T02:02:51.521Z,51.60
2023-02-28T02:05:22.369Z,53.30
2023-02-28T02:07:55.248Z,52.70
2023-02-28T02:10:37.407Z,53.30
2023-02-28T02:13:09.500Z,52.20
2023-02-28T02:15:43.457Z,53.50
2023-02-28T02:18:26.595Z,53.00
2023-02-28T02:21:05.506Z,53.10
2023-02-28T02:23:59.586Z,52.20
2023-02-28T02:26:48.359Z,53.90
2023-02-28T02:29:32.351Z,54.20
2023-02-28T02:32:07.901Z,53.60
2023-02-28T02:34:57.264Z,53.60
2023-02-28T02:37:53.539Z,53.40
2023-02-28T02:40:28.506Z,53.10
2023-02-28T02:43:20.067Z,53.10
2023-02-28T02:45:57.476Z,52.90
2023-02-28T02:48:28.897Z,52.40
2023-02-28T02:51:01.334Z,52.40
2023-02-28T02:53:42.547Z,52.10
2023-02-28T02:56:10.562Z,52.50
2023-02-28T02:58:43.191Z,52.40
2023-02-28T03:01:16.681Z,52.20
2023-02-28T03:03:45.524Z,52.30
2023-02-28T03:06:13.458Z,52.00
2023-02-28T03:08:40.525Z,52.40
2023-02-28T03:11:15.056Z,52.30
2023-02-28T03:14:05.085Z,52.80
2023-02-28T03:17:00.299Z,52.60
2023-02-28T03:19:48.788Z,52.20
2023-02-28T03:22:20.864Z,52.80
2023-02-28T03:25:05.711Z,52.60
2023-02-28T03:27:56.866Z,52.50
2023-02-28T03:30:57.006Z,52.00
2023-02-28T03:33:40.472Z,52.40
2023-02-28T03:36:18.256Z,52.20
2023-02-28T03:38:52.099Z,52.60
2023-02-28T03:41:32.208Z,52.50
2023-02-28T03:44:11.637Z,52.60
2023-02-28T03:46:45.900Z,51.90
2023-02-28T03:49:18.595Z,52.90
2023-02-28T03:51:48.145Z,52.20
2023-02-28T03:54:20.068Z,52.30
2023-02-28T03:57:24.052Z,52.90
2023-02-28T04:00:00.457Z,53.20
2023-02-28T04:02:28.659Z,51.40
2023-02-28T04:04:55.681Z,52.80
2023-02-28T04:07:22.600Z,52.60
2023-02-28T04:09:49.517Z,52.80
2023-02-28T04:12:16.530Z,52.70
2023-02-28T04:14:43.491Z,52.80
2023-02-28T04:17:10.446Z,53.30
2023-02-28T04:19:38.720Z,52.50
2023-02-28T04:22:05.608Z,52.80
2023-02-28T04:24:32.551Z,52.90
2023-02-28T04:26:59.846Z,52.60
2023-02-28T04:29:29.575Z,52.60
2023-02-28T04:32:00.851Z,52.40
2023-02-28T04:34:30.817Z,52.70
2023-02-28T04:37:11.917Z,52.90
2023-02-28T04:39:40.504Z,52.90
2023-02-28T04:42:07.767Z,52.90
2023-02-28T04:44:37.221Z,52.70
2023-02-28T04:47:04.142Z,52.30
2023-02-28T04:49:31.158Z,53.10
2023-02-28T04:51:58.051Z,52.90
2023-02-28T04:54:25.504Z,52.00
2023-02-28T04:56:52.496Z,52.70
2023-02-28T04:59:19.565Z,53.20
2023-02-28T05:01:48.543Z,53.10
2023-02-28T05:04:16.066Z,52.40
2023-02-28T05:06:43.941Z,53.00
2023-02-28T05:09:12.698Z,52.60
2023-02-28T05:11:40.532Z,53.00
2023-02-28T05:14:15.816Z,52.20
2023-02-28T05:16:43.323Z,52.60
2023-02-28T05:19:10.389Z,53.10
2023-02-28T05:21:40.806Z,52.80
2023-02-28T05:24:12.957Z,53.00
2023-02-28T05:26:42.359Z,53.00
2023-02-28T05:29:10.275Z,53.30
2023-02-28T05:31:37.457Z,53.10
2023-02-28T05:34:07.342Z,53.20
2023-02-28T05:36:34.649Z,53.10
2023-02-28T05:39:01.722Z,52.60
2023-02-28T05:41:29.063Z,52.90
2023-02-28T05:43:56.357Z,53.00
2023-02-28T05:46:23.427Z,52.40
2023-02-28T05:48:51.952Z,52.60
2023-02-28T05:51:19.022Z,52.60
2023-02-28T05:53:46.194Z,53.40
2023-02-28T05:56:13.537Z,53.90
2023-02-28T05:58:40.521Z,52.80
2023-02-28T06:01:34.694Z,52.40
2023-02-28T06:04:03.277Z,52.70
2023-02-28T06:06:36.933Z,53.90
2023-02-28T06:09:07.519Z,53.50
2023-02-28T06:11:34.935Z,53.50
2023-02-28T06:14:02.908Z,52.40
2023-02-28T06:16:32.338Z,52.90
2023-02-28T06:19:00.999Z,53.00
2023-02-28T06:21:29.096Z,52.70
2023-02-28T06:23:57.402Z,54.10
2023-02-28T06:26:24.984Z,54.20
2023-02-28T06:28:52.120Z,53.50
2023-02-28T06:31:20.035Z,53.60
2023-02-28T06:33:47.700Z,54.10
2023-02-28T06:36:15.574Z,53.90
2023-02-28T06:38:42.738Z,53.60
2023-02-28T06:41:10.188Z,53.50
2023-02-28T06:43:41.394Z,53.90
2023-02-28T06:46:10.160Z,53.90
2023-02-28T06:48:37.097Z,53.50
2023-02-28T06:51:11.962Z,53.80
2023-02-28T06:53:39.567Z,54.00
2023-02-28T06:56:11.698Z,54.00
2023-02-28T06:58:40.257Z,53.70
2023-02-28T07:01:08.900Z,52.90
2023-02-28T07:03:37.251Z,53.20
2023-02-28T07:06:05.807Z,53.60
2023-02-28T07:08:32.835Z,53.80
2023-02-28T07:11:00.240Z,53.80
2023-02-28T07:13:27.427Z,53.00
2023-02-28T07:15:59.667Z,53.30
2023-02-28T07:18:26.913Z,53.60
2023-02-28T07:20:54.106Z,53.90
2023-02-28T07:23:21.710Z,53.10
2023-02-28T07:25:48.918Z,54.30
2023-02-28T07:28:15.969Z,53.60
2023-02-28T07:30:43.667Z,52.90
2023-02-28T07:33:10.605Z,52.60
2023-02-28T07:35:37.628Z,52.50
2023-02-28T07:38:05.022Z,53.00
2023-02-28T07:40:32.189Z,53.20
2023-02-28T07:43:01.469Z,50.40
2023-02-28T07:45:29.904Z,55.10
2023-02-28T07:47:57.217Z,54.20
2023-02-28T07:50:26.150Z,52.90
2023-02-28T07:52:54.094Z,52.90
2023-02-28T07:55:21.186Z,53.20
2023-02-28T07:57:48.322Z,51.90
2023-02-28T08:00:15.611Z,52.70
2023-02-28T08:02:42.674Z,52.60
2023-02-28T08:05:10.024Z,50.90
2023-02-28T08:07:37.076Z,51.60
2023-02-28T08:10:06.604Z,50.90
2023-02-28T08:12:34.032Z,51.40
2023-02-28T08:15:01.057Z,51.40
2023-02-28T08:17:28.508Z,51.70
2023-02-28T08:19:55.605Z,50.50
2023-02-28T08:22:22.552Z,49.80
2023-02-28T08:24:52.447Z,50.80
2023-02-28T08:27:19.383Z,48.00
2023-02-28T08:29:46.413Z,50.00
2023-02-28T08:32:28.605Z,49.40
2023-02-28T08:34:56.947Z,49.60
2023-02-28T08:37:24.346Z,49.20
2023-02-28T08:39:53.335Z,49.60
2023-02-28T08:42:22.915Z,48.70
2023-02-28T08:44:49.860Z,48.60
2023-02-28T08:47:16.890Z,48.40
2023-02-28T08:49:43.965Z,50.50
2023-02-28T08:52:10.936Z,49.50
2023-02-28T08:54:37.910Z,47.90
2023-02-28T08:57:05.122Z,48.00
2023-02-28T08:59:32.309Z,50.20
2023-02-28T09:02:00.694Z,48.80
2023-02-28T09:04:27.632Z,47.20
2023-02-28T09:06:54.764Z,49.40
2023-02-28T09:09:21.746Z,47.70
2023-02-28T09:11:48.719Z,46.20
2023-02-28T09:14:15.817Z,47.00
2023-02-28T09:16:43.031Z,48.50
2023-02-28T09:19:13.135Z,46.40
2023-02-28T09:21:40.896Z,46.40
2023-02-28T09:24:08.850Z,45.20
2023-02-28T09:26:42.725Z,46.60
2023-02-28T09:29:10.653Z,45.90
2023-02-28T09:31:37.648Z,44.50
2023-02-28T09:34:05.472Z,45.10
2023-02-28T09:36:43.708Z,45.40
2023-02-28T09:39:13.047Z,44.10
2023-02-28T09:41:49.492Z,45.60
2023-02-28T09:44:49.549Z,44.20
2023-02-28T09:47:26.547Z,46.30
2023-02-28T09:49:53.712Z,43.30
2023-02-28T09:52:31.573Z,42.50
2023-02-28T09:55:18.998Z,41.20
2023-02-28T09:57:46.822Z,42.00
2023-02-28T10:00:20.363Z,43.60
2023-02-28T10:03:07.632Z,45.90
2023-02-28T10:05:44.673Z,43.60
2023-02-28T10:08:34.678Z,42.80
2023-02-28T10:11:07.655Z,42.80
2023-02-28T10:13:38.849Z,41.60
2023-02-28T10:16:22.090Z,44.20
2023-02-28T10:18:54.925Z,41.70
2023-02-28T10:21:43.354Z,41.70
2023-02-28T10:24:33.813Z,44.30
2023-02-28T10:27:22.404Z,42.80
2023-02-28T10:29:57.639Z,42.60
2023-02-28T10:32:31.035Z,42.80
2023-02-28T10:35:10.493Z,43.30
2023-02-28T10:37:42.280Z,43.00
2023-02-28T10:40:21.871Z,41.80
2023-02-28T10:43:14.968Z,40.10
2023-02-28T10:45:54.351Z,40.30
2023-02-28T10:48:21.233Z,42.90
2023-02-28T10:50:48.218Z,42.00
2023-02-28T10:53:36.160Z,41.20
2023-02-28T10:56:11.606Z,40.00
2023-02-28T10:59:27.372Z,41.40
2023-02-28T11:01:54.584Z,39.10
2023-02-28T11:04:42.535Z,39.20
2023-02-28T11:07:20.703Z,41.40
2023-02-28T11:09:57.751Z,41.00
2023-02-28T11:12:27.521Z,40.00
2023-02-28T11:15:01.328Z,40.50
2023-02-28T11:17:31.655Z,41.90
2023-02-28T11:20:08.014Z,40.00
2023-02-28T11:22:40.113Z,40.20
2023-02-28T11:25:31.880Z,40.80
2023-02-28T11:28:05.728Z,40.20
2023-02-28T11:30:41.529Z,39.30
2023-02-28T11:33:33.556Z,40.80
2023-02-28T11:36:10.676Z,39.80
2023-02-28T11:38:38.680Z,41.40
2023-02-28T11:41:24.698Z,45.80
2023-02-28T11:44:28.269Z,44.10
2023-02-28T11:47:18.445Z,42.10
2023-02-28T11:50:09.739Z,39.00
2023-02-28T11:52:48.530Z,41.90
2023-02-28T11:55:25.795Z,40.30
2023-02-28T11:57:57.314Z,41.80
2023-02-28T12:00:29.968Z,42.30
2023-02-28T12:03:22.839Z,39.70
2023-02-28T12:06:17.507Z,40.90
2023-02-28T12:09:02.744Z,41.60
2023-02-28T12:11:47.873Z,39.10
2023-02-28T12:14:20.612Z,41.90
2023-02-28T12:17:00.911Z,39.60
2023-02-28T12:19:30.823Z,41.50
2023-02-28T12:22:09.306Z,38.40
2023-02-28T12:24:44.646Z,38.90
2023-02-28T12:27:16.242Z,39.30
2023-02-28T12:29:58.076Z,38.10
2023-02-28T12:32:38.661Z,39.10
2023-02-28T12:35:12.572Z,39.20
2023-02-28T12:38:00.814Z,40.70
2023-02-28T12:40:35.239Z,39.90
2023-02-28T12:43:06.833Z,39.40
2023-02-28T12:46:01.992Z,39.40
2023-02-28T12:48:38.593Z,38.40
2023-02-28T12:51:08.025Z,38.20
2023-02-28T12:53:59.084Z,37.40
2023-02-28T12:56:42.298Z,37.30
2023-02-28T12:59:32.786Z,39.30
2023-02-28T13:02:11.934Z,39.20
2023-02-28T13:04:41.750Z,38.70
2023-02-28T13:07:33.410Z,37.60
2023-02-28T13:10:03.427Z,40.30
2023-02-28T13:12:30.527Z,39.10
2023-02-28T13:15:17.891Z,40.40
2023-02-28T13:17:50.677Z,38.70
2023-02-28T13:20:26.377Z,37.30
2023-02-28T13:22:55.398Z,37.50
2023-02-28T13:25:34.679Z,39.40
2023-02-28T13:28:05.261Z,39.30
2023-02-28T13:30:57.048Z,37.00
2023-02-28T13:33:29.977Z,37.70
2023-02-28T13:36:12.229Z,38.90
2023-02-28T13:38:50.022Z,39.30
2023-02-28T13:41:32.722Z,36.60
2023-02-28T13:44:27.820Z,37.90
2023-02-28T13:46:56.722Z,36.40
2023-02-28T13:49:26.537Z,37.70
2023-02-28T13:52:16.130Z,36.80
2023-02-28T13:54:56.918Z,38.30
2023-02-28T13:57:23.856Z,37.20
2023-02-28T14:00:25.507Z,38.90
2023-02-28T14:03:12.000Z,37.50
2023-02-28T14:05:39.872Z,36.20
2023-02-28T14:08:21.909Z,37.70
2023-02-28T14:10:52.067Z,35.90
2023-02-28T14:13:51.154Z,39.10
2023-02-28T14:16:22.806Z,37.90
2023-02-28T14:18:56.031Z,36.20
2023-02-28T14:21:27.125Z,34.90
2023-02-28T14:23:57.022Z,37.70
2023-02-28T14:26:42.580Z,37.00
2023-02-28T14:29:25.106Z,39.20
2023-02-28T14:32:03.571Z,36.20
2023-02-28T14:34:47.230Z,35.80
2023-02-28T14:37:24.617Z,38.50
2023-02-28T14:39:51.862Z,37.90
2023-02-28T14:42:35.337Z,36.70
2023-02-28T14:45:03.671Z,36.20
2023-02-28T14:47:34.071Z,39.80
2023-02-28T14:50:02.730Z,38.70
2023-02-28T14:52:32.784Z,38.70
2023-02-28T14:55:14.678Z,37.60
2023-02-28T14:57:51.003Z,38.70
2023-02-28T15:00:31.372Z,35.90
2023-02-28T15:03:00.269Z,36.30
2023-02-28T15:05:35.653Z,37.20
2023-02-28T15:08:12.918Z,38.20
2023-02-28T15:10:43.740Z,36.90
2023-02-28T15:13:15.526Z,38.90
2023-02-28T15:16:02.432Z,37.50
2023-02-28T15:18:38.648Z,37.70
2023-02-28T15:21:22.550Z,37.70
2023-02-28T15:23:57.009Z,37.50
2023-02-28T15:26:28.357Z,39.40
2023-02-28T15:29:11.778Z,37.80
2023-02-28T15:31:56.998Z,37.60
2023-02-28T15:34:44.284Z,38.80
2023-02-28T15:37:31.652Z,38.70
2023-02-28T15:40:06.533Z,37.40
2023-02-28T15:42:33.510Z,38.20
2023-02-28T15:45:00.874Z,38.20
2023-02-28T15:47:30.246Z,36.50
2023-02-28T15:50:11.623Z,37.20
2023-02-28T15:52:46.827Z,38.50
2023-02-28T15:55:28.521Z,38.80
2023-02-28T15:58:01.091Z,39.30
2023-02-28T16:00:30.857Z,38.60
2023-02-28T16:02:57.938Z,39.70
2023-02-28T16:05:29.214Z,37.30
2023-02-28T16:07:58.317Z,39.60
2023-02-28T16:10:27.881Z,38.50
2023-02-28T16:12:57.137Z,38.30
2023-02-28T16:15:30.377Z,38.90
2023-02-28T16:17:58.679Z,40.00
2023-02-28T16:20:31.552Z,38.30
2023-02-28T16:23:02.432Z,37.40
2023-02-28T16:25:41.231Z,38.20
2023-02-28T16:28:21.567Z,39.20
2023-02-28T16:30:48.771Z,39.10
2023-02-28T16:33:15.817Z,38.70
2023-02-28T16:35:42.771Z,36.80
2023-02-28T16:38:10.758Z,40.60
2023-02-28T16:40:38.382Z,38.30
2023-02-28T16:43:27.198Z,41.10
2023-02-28T16:46:01.630Z,40.90
2023-02-28T16:48:29.071Z,40.30
2023-02-28T16:50:55.993Z,41.20
2023-02-28T16:53:22.944Z,40.60
2023-02-28T16:55:51.837Z,39.70
2023-02-28T16:58:22.455Z,40.30
2023-02-28T17:00:49.994Z,39.40
2023-02-28T17:03:37.313Z,40.20
2023-02-28T17:06:05.386Z,41.00
2023-02-28T17:08:34.181Z,40.30
2023-02-28T17:11:02.640Z,41.20
2023-02-28T17:13:29.659Z,40.80
2023-02-28T17:15:57.158Z,41.90
2023-02-28T17:18:24.269Z,40.80
2023-02-28T17:20:51.313Z,41.30
2023-02-28T17:23:18.270Z,42.20
2023-02-28T17:25:56.355Z,40.60
2023-02-28T17:28:26.181Z,39.30
2023-02-28T17:30:53.171Z,40.30
2023-02-28T17:33:20.169Z,40.80
2023-02-28T17:35:47.445Z,40.70
2023-02-28T17:38:18.117Z,40.80
2023-02-28T17:40:48.604Z,39.40
2023-02-28T17:43:15.947Z,40.20
2023-02-28T17:45:43.258Z,40.90
2023-02-28T17:48:13.745Z,39.60
2023-02-28T17:50:41.034Z,40.60
2023-02-28T17:53:08.179Z,41.10
2023-02-28T17:55:35.941Z,41.90
2023-02-28T17:58:04.374Z,40.90
2023-02-28T18:00:34.503Z,42.00
2023-02-28T18:03:01.632Z,41.80
2023-02-28T18:05:28.954Z,42.00
2023-02-28T18:07:56.154Z,41.70
2023-02-28T18:10:23.220Z,40.00
2023-02-28T18:12:52.310Z,40.10
2023-02-28T18:15:21.626Z,42.90
2023-02-28T18:17:50.069Z,42.70
2023-02-28T18:20:17.678Z,42.50
2023-02-28T18:22:44.740Z,42.60
2023-02-28T18:25:17.629Z,42.30
2023-02-28T18:27:58.189Z,42.80
2023-02-28T18:30:31.437Z,42.90
2023-02-28T18:33:00.200Z,42.60
2023-02-28T18:35:37.332Z,42.80
2023-02-28T18:38:14.991Z,42.50
2023-02-28T18:40:43.699Z,43.80
2023-02-28T18:43:10.690Z,43.20
2023-02-28T18:45:39.098Z,43.70
2023-02-28T18:48:06.389Z,43.00
2023-02-28T18:50:37.078Z,42.90
2023-02-28T18:53:04.088Z,43.80
2023-02-28T18:55:34.175Z,43.80
2023-02-28T18:58:01.129Z,42.40
2023-02-28T19:00:28.114Z,43.70
2023-02-28T19:02:55.270Z,45.60
2023-02-28T19:05:22.482Z,45.10
2023-02-28T19:07:49.516Z,45.70
2023-02-28T19:10:17.063Z,45.40
2023-02-28T19:12:44.160Z,45.20
2023-02-28T19:15:12.138Z,45.80
2023-02-28T19:17:39.507Z,45.40
2023-02-28T19:20:08.609Z,41.00
2023-02-28T19:22:37.030Z,43.00
2023-02-28T19:25:07.572Z,49.20
2023-02-28T19:27:35.196Z,48.70
2023-02-28T19:30:02.934Z,47.00
2023-02-28T19:32:30.097Z,47.60
2023-02-28T19:34:57.081Z,46.70
2023-02-28T19:37:24.091Z,47.20
2023-02-28T19:39:51.733Z,47.30
2023-02-28T19:42:18.737Z,47.10
2023-02-28T19:44:45.996Z,47.00
2023-02-28T19:47:13.313Z,46.50
2023-02-28T19:49:40.315Z,47.00
2023-02-28T19:52:10.374Z,46.20
2023-02-28T19:54:40.474Z,46.30
2023-02-28T19:57:07.793Z,46.40
2023-02-28T19:59:39.428Z,46.60
2023-02-28T20:02:16.828Z,47.00
2023-02-28T20:04:49.155Z,46.90
2023-02-28T20:07:20.391Z,46.80
2023-02-28T20:09:48.617Z,47.10
2023-02-28T20:12:24.044Z,47.30
2023-02-28T20:14:52.351Z,47.00
2023-02-28T20:17:19.641Z,47.00
2023-02-28T20:19:46.597Z,48.20
2023-02-28T20:22:13.684Z,48.20
2023-02-28T20:24:40.635Z,48.40
2023-02-28T20:27:07.757Z,48.30
2023-02-28T20:29:35.372Z,48.10
2023-02-28T20:32:02.869Z,48.10
2023-02-28T20:34:29.813Z,47.50
2023-02-28T20:36:58.672Z,47.30
2023-02-28T20:39:26.245Z,47.80
2023-02-28T20:41:53.269Z,48.30
2023-02-28T20:44:20.332Z,47.40
2023-02-28T20:46:47.265Z,47.90
2023-02-28T20:49:15.804Z,47.70
2023-02-28T20:51:42.924Z,47.60
2023-02-28T20:54:14.005Z,48.00
2023-02-28T20:56:41.142Z,48.00
2023-02-28T20:59:11.602Z,48.00
2023-02-28T21:01:40.510Z,47.20
2023-02-28T21:04:08.190Z,48.30
2023-02-28T21:06:43.105Z,48.30
2023-02-28T21:09:11.307Z,48.40
2023-02-28T21:11:39.073Z,48.60
2023-02-28T21:14:10.807Z,48.90
2023-02-28T21:16:38.245Z,47.90
2023-02-28T21:19:05.578Z,48.60
2023-02-28T21:21:43.890Z,48.80
2023-02-28T21:24:12.404Z,48.00
2023-02-28T21:26:40.762Z,48.30
2023-02-28T21:29:08.035Z,48.30
2023-02-28T21:31:35.796Z,48.00
2023-02-28T21:34:04.949Z,48.10
2023-02-28T21:36:36.107Z,47.80
2023-02-28T21:39:13.014Z,48.20
2023-02-28T21:41:40.245Z,48.10
2023-02-28T21:44:07.248Z,48.10
2023-02-28T21:46:34.472Z,48.40
2023-02-28T21:49:01.696Z,48.00
2023-02-28T21:51:31.306Z,48.60
2023-02-28T21:54:02.196Z,48.40
2023-02-28T21:56:31.915Z,48.50
2023-02-28T21:59:02.738Z,49.00
2023-02-28T22:01:35.595Z,48.80
2023-02-28T22:04:04.672Z,49.30
2023-02-28T22:06:34.392Z,49.50
2023-02-28T22:09:04.603Z,49.70
2023-02-28T22:11:32.885Z,50.20
2023-02-28T22:14:00.149Z,49.70
2023-02-28T22:16:35.188Z,49.50
2023-02-28T22:19:08.548Z,49.40
2023-02-28T22:21:37.660Z,49.10
2023-02-28T22:24:05.423Z,48.00
2023-02-28T22:26:32.769Z,49.00
2023-02-28T22:29:00.256Z,49.20
2023-02-28T22:31:28.428Z,50.10
2023-02-28T22:33:58.518Z,50.50
2023-02-28T22:36:25.713Z,50.00
2023-02-28T22:38:53.419Z,49.70
2023-02-28T22:41:22.655Z,49.80
2023-02-28T22:43:58.731Z,50.20
2023-02-28T22:46:27.514Z,50.10
2023-02-28T22:48:55.115Z,50.00
2023-02-28T22:51:25.547Z,49.70
2023-02-28T22:53:54.371Z,50.10
2023-02-28T22:56:23.672Z,50.60
2023-02-28T22:58:52.119Z,50.50
2023-02-28T23:01:21.989Z,50.60
2023-02-28T23:03:49.357Z,50.40
2023-02-28T23:06:19.056Z,50.90
2023-02-28T23:08:47.199Z,50.20
2023-02-28T23:11:23.207Z,50.30
2023-02-28T23:13:59.820Z,50.20
2023-02-28T23:16:33.050Z,50.70
2023-02-28T23:19:02.856Z,50.30
2023-02-28T23:21:30.775Z,51.10
2023-02-28T23:23:57.876Z,50.10
2023-02-28T23:26:24.962Z,51.00
2023-02-28T23:28:51.920Z,50.90
2023-02-28T23:31:19.009Z,50.80
2023-02-28T23:33:46.931Z,50.70
2023-02-28T23:36:16.557Z,50.90
2023-02-28T23:38:47.560Z,50.60
2023-02-28T23:41:14.875Z,50.80
2023-02-28T23:43:41.794Z,51.60
2023-02-28T23:46:10.330Z,51.20
2023-02-28T23:48:37.530Z,51.30
2023-02-28T23:51:10.252Z,51.00
2023-02-28T23:53:41.863Z,50.90
2023-02-28T23:56:11.340Z,51.10
2023-02-28T23:58:38.354Z,50.80
